createdAt,value
2019-05-21T00:00:42.305Z,91.79
2019-05-21T00:03:46.134Z,92.40
2019-05-21T00:06:49.988Z,91.31
2019-05-21T00:09:53.817Z,91.63
2019-05-21T00:12:57.713Z,91.50
2019-05-21T00:16:01.610Z,92.63
2019-05-21T00:19:05.611Z,93.05
2019-05-21T00:22:09.499Z,93.66
2019-05-21T00:25:16.932Z,93.77
2019-05-21T00:28:42.662Z,94.00
2019-05-21T00:32:22.409Z,92.77
2019-05-21T00:36:02.359Z,94.59
2019-05-21T00:39:41.986Z,93.78
2019-05-21T00:42:46.566Z,94.27
2019-05-21T00:45:50.418Z,94.19
2019-05-21T00:48:54.340Z,93.44
2019-05-21T00:52:07.011Z,93.32
2019-05-21T00:55:04.245Z,93.45
2019-05-21T00:58:08.134Z,92.97
2019-05-21T01:01:11.974Z,92.66
2019-05-21T01:04:15.887Z,93.89
2019-05-21T01:07:19.821Z,95.11
2019-05-21T01:10:23.641Z,93.99
2019-05-21T01:13:28.042Z,94.69
2019-05-21T01:16:32.014Z,94.37
2019-05-21T01:19:35.867Z,94.46
2019-05-21T01:22:39.802Z,95.02
2019-05-21T01:25:43.665Z,95.62
2019-05-21T01:28:47.583Z,95.97
2019-05-21T01:31:51.511Z,95.89
2019-05-21T01:34:55.442Z,95.78
2019-05-21T01:37:59.272Z,95.18
2019-05-21T01:41:03.193Z,95.60
2019-05-21T01:44:07.072Z,96.02
2019-05-21T01:47:10.878Z,96.16
2019-05-21T01:50:14.741Z,96.04
2019-05-21T01:53:18.577Z,96.00
2019-05-21T01:56:22.522Z,96.77
2019-05-21T01:59:26.371Z,97.23
2019-05-21T02:02:30.180Z,97.08
2019-05-21T02:05:34.128Z,96.47
2019-05-21T02:08:37.977Z,96.42
2019-05-21T02:11:41.821Z,96.57
2019-05-21T02:14:45.641Z,96.82
2019-05-21T02:17:49.548Z,97.10
2019-05-21T02:20:53.444Z,97.13
2019-05-21T02:23:57.323Z,97.03
2019-05-21T02:27:01.134Z,97.19
2019-05-21T02:30:07.850Z,97.28
2019-05-21T02:33:11.922Z,96.80
2019-05-21T02:36:15.770Z,97.26
2019-05-21T02:39:19.622Z,97.50
2019-05-21T02:42:23.470Z,97.50
2019-05-21T02:45:27.347Z,97.69
2019-05-21T02:48:31.302Z,97.60
2019-05-21T02:51:35.256Z,97.59
2019-05-21T02:54:41.693Z,97.75
2019-05-21T02:57:44.791Z,98.07
2019-05-21T03:01:04.117Z,97.83
2019-05-21T03:04:07.924Z,98.02
2019-05-21T03:07:17.931Z,98.22
2019-05-21T03:10:21.740Z,98.44
2019-05-21T03:13:25.662Z,97.77
2019-05-21T03:16:29.487Z,96.92
2019-05-21T03:19:33.352Z,98.17
2019-05-21T03:22:37.228Z,98.66
2019-05-21T03:25:41.212Z,99.54
2019-05-21T03:28:45.164Z,99.98
2019-05-21T03:31:49.070Z,100.00
2019-05-21T03:34:52.960Z,100.00
2019-05-21T03:37:56.893Z,100.00
2019-05-21T03:41:00.694Z,100.00
2019-05-21T03:44:04.589Z,100.00
2019-05-21T03:47:08.427Z,100.00
2019-05-21T03:50:12.341Z,100.00
2019-05-21T03:53:16.248Z,100.00
2019-05-21T03:56:20.039Z,100.00
2019-05-21T03:59:23.932Z,100.00
2019-05-21T04:02:27.758Z,100.00
2019-05-21T04:05:31.596Z,100.00
2019-05-21T04:08:35.429Z,100.00
2019-05-21T04:11:39.398Z,100.00
2019-05-21T04:14:47.600Z,100.00
2019-05-21T04:18:00.449Z,100.00
2019-05-21T04:21:04.378Z,100.00
2019-05-21T04:24:09.272Z,100.00
2019-05-21T04:27:13.814Z,100.00
2019-05-21T04:30:17.858Z,100.00
2019-05-21T04:33:21.705Z,100.00
2019-05-21T04:36:25.603Z,100.00
2019-05-21T04:39:29.453Z,100.00
2019-05-21T04:42:33.276Z,100.00
2019-05-21T04:45:37.105Z,100.00
2019-05-21T04:48:40.943Z,100.00
2019-05-21T04:51:44.875Z,100.00
2019-05-21T04:54:48.707Z,100.00
2019-05-21T04:57:52.574Z,100.00
2019-05-21T05:00:56.375Z,100.00
2019-05-21T05:04:00.278Z,100.00
2019-05-21T05:07:04.410Z,100.00
2019-05-21T05:10:08.493Z,100.00
2019-05-21T05:13:12.418Z,100.00
2019-05-21T05:16:16.261Z,100.00
2019-05-21T05:19:20.287Z,100.00
2019-05-21T05:22:24.273Z,100.00
2019-05-21T05:25:28.233Z,100.00
2019-05-21T05:28:32.073Z,100.00
2019-05-21T05:31:35.980Z,100.00
2019-05-21T05:34:39.942Z,100.00
2019-05-21T05:37:48.388Z,100.00
2019-05-21T05:40:49.381Z,100.00
2019-05-21T05:43:53.306Z,100.00
2019-05-21T05:46:57.210Z,100.00
2019-05-21T05:50:02.773Z,100.00
2019-05-21T05:53:06.642Z,100.00
2019-05-21T05:56:10.485Z,100.00
2019-05-21T05:59:14.771Z,100.00
2019-05-21T06:02:18.860Z,100.00
2019-05-21T06:05:22.940Z,100.00
2019-05-21T06:08:26.801Z,100.00
2019-05-21T06:11:30.722Z,100.00
2019-05-21T06:14:34.547Z,100.00
2019-05-21T06:17:38.517Z,100.00
2019-05-21T06:20:42.342Z,100.00
2019-05-21T06:23:46.156Z,100.00
2019-05-21T06:26:50.065Z,100.00
2019-05-21T06:29:53.957Z,100.00
2019-05-21T06:32:57.838Z,100.00
2019-05-21T06:36:01.681Z,100.00
2019-05-21T06:39:07.711Z,100.00
2019-05-21T06:42:11.655Z,100.00
2019-05-21T06:45:16.173Z,100.00
2019-05-21T06:48:20.086Z,100.00
2019-05-21T06:51:23.956Z,100.00
2019-05-21T06:54:28.196Z,100.00
2019-05-21T06:57:32.105Z,100.00
2019-05-21T07:00:35.914Z,100.00
2019-05-21T07:03:39.725Z,99.55
2019-05-21T07:06:44.893Z,99.36
2019-05-21T07:09:49.024Z,99.92
2019-05-21T07:12:52.832Z,99.95
2019-05-21T07:15:56.672Z,99.88
2019-05-21T07:19:00.523Z,99.28
2019-05-21T07:22:12.738Z,99.07
2019-05-21T07:25:10.174Z,98.84
2019-05-21T07:28:14.090Z,98.79
2019-05-21T07:31:18.020Z,97.86
2019-05-21T07:34:21.848Z,96.76
2019-05-21T07:37:25.759Z,96.54
2019-05-21T07:40:29.650Z,96.32
2019-05-21T07:43:33.579Z,97.04
2019-05-21T07:46:39.645Z,95.26
2019-05-21T07:49:48.078Z,94.60
2019-05-21T07:52:52.015Z,95.31
2019-05-21T07:55:55.888Z,95.13
2019-05-21T07:58:59.711Z,94.78
2019-05-21T08:02:03.542Z,94.71
2019-05-21T08:05:07.772Z,94.62
2019-05-21T08:08:11.651Z,93.63
2019-05-21T08:11:15.492Z,93.35
2019-05-21T08:14:19.483Z,93.76
2019-05-21T08:17:23.307Z,94.19
2019-05-21T08:20:27.743Z,92.85
2019-05-21T08:23:31.555Z,92.97
2019-05-21T08:26:35.427Z,92.49
2019-05-21T08:29:39.238Z,91.59
2019-05-21T08:32:43.104Z,91.07
2019-05-21T08:35:47.076Z,91.53
2019-05-21T08:38:51.095Z,91.05
2019-05-21T08:41:54.949Z,90.89
2019-05-21T08:44:58.843Z,89.91
2019-05-21T08:48:02.773Z,90.16
2019-05-21T08:51:06.749Z,90.81
2019-05-21T08:54:10.785Z,88.43
2019-05-21T08:57:14.827Z,88.14
2019-05-21T09:00:20.948Z,89.37
2019-05-21T09:03:24.872Z,87.83
2019-05-21T09:06:28.850Z,88.34
2019-05-21T09:09:48.565Z,89.49
2019-05-21T09:12:38.346Z,87.84
2019-05-21T09:15:42.195Z,87.95
2019-05-21T09:18:46.050Z,88.74
2019-05-21T09:21:49.854Z,87.42
2019-05-21T09:24:53.896Z,86.73
2019-05-21T09:27:57.761Z,84.95
2019-05-21T09:31:02.287Z,86.02
2019-05-21T09:34:06.402Z,85.35
2019-05-21T09:37:19.267Z,85.13
2019-05-21T09:40:17.658Z,85.26
2019-05-21T09:43:21.473Z,86.63
2019-05-21T09:46:25.373Z,86.85
2019-05-21T09:49:29.285Z,86.34
2019-05-21T09:52:33.308Z,85.32
2019-05-21T09:55:37.152Z,84.99
2019-05-21T09:58:45.029Z,84.80
2019-05-21T10:01:50.724Z,83.19
2019-05-21T10:04:54.590Z,84.02
2019-05-21T10:07:58.432Z,82.85
2019-05-21T10:11:03.633Z,82.15
2019-05-21T10:14:07.599Z,82.47
2019-05-21T10:17:11.526Z,81.11
2019-05-21T10:20:15.530Z,79.62
2019-05-21T10:23:20.092Z,79.30
2019-05-21T10:26:24.044Z,78.73
2019-05-21T10:29:27.907Z,76.72
2019-05-21T10:32:31.844Z,77.80
2019-05-21T10:35:35.671Z,76.04
2019-05-21T10:38:39.693Z,77.71
2019-05-21T10:41:46.028Z,77.53
2019-05-21T10:44:49.447Z,75.87
2019-05-21T10:47:53.309Z,77.27
2019-05-21T10:50:57.203Z,76.25
2019-05-21T10:54:01.130Z,75.51
2019-05-21T10:57:05.149Z,74.85
2019-05-21T11:00:13.261Z,72.86
2019-05-21T11:03:25.197Z,73.71
2019-05-21T11:06:29.084Z,73.66
2019-05-21T11:09:33.146Z,74.40
2019-05-21T11:12:37.085Z,73.90
2019-05-21T11:15:41.120Z,72.67
2019-05-21T11:18:45.034Z,72.09
2019-05-21T11:21:48.873Z,71.36
2019-05-21T11:24:52.888Z,71.37
2019-05-21T11:27:56.740Z,71.54
2019-05-21T11:31:00.624Z,69.62
2019-05-21T11:34:04.602Z,70.63
2019-05-21T11:37:08.548Z,70.57
2019-05-21T11:40:12.949Z,70.45
2019-05-21T11:43:16.791Z,71.15
2019-05-21T11:46:20.645Z,72.34
2019-05-21T11:49:24.516Z,71.54
2019-05-21T11:52:28.400Z,70.61
2019-05-21T11:55:32.340Z,70.95
2019-05-21T11:58:39.782Z,71.88
2019-05-21T12:01:41.778Z,71.88
2019-05-21T12:04:45.633Z,70.86
2019-05-21T12:07:49.479Z,71.81
2019-05-21T12:10:53.451Z,73.14
2019-05-21T12:13:57.314Z,74.02
2019-05-21T12:17:01.250Z,74.00
2019-05-21T12:20:06.424Z,73.83
2019-05-21T12:23:10.273Z,73.35
2019-05-21T12:26:14.285Z,73.63
2019-05-21T12:29:18.122Z,74.05
2019-05-21T12:32:21.976Z,74.61
2019-05-21T12:35:25.822Z,74.71
2019-05-21T12:38:29.804Z,75.18
2019-05-21T12:41:33.689Z,74.25
2019-05-21T12:44:37.643Z,72.53
2019-05-21T12:47:41.594Z,73.21
2019-05-21T12:50:45.439Z,73.35
2019-05-21T12:53:49.288Z,72.94
2019-05-21T12:56:53.242Z,73.76
2019-05-21T12:59:57.194Z,74.79
2019-05-21T13:03:01.121Z,75.05
2019-05-21T13:06:05.166Z,74.54
2019-05-21T13:09:09.209Z,74.83
2019-05-21T13:12:13.158Z,74.74
2019-05-21T13:15:17.142Z,76.23
2019-05-21T13:18:22.294Z,76.63
2019-05-21T13:21:26.236Z,75.61
2019-05-21T13:24:30.075Z,75.97
2019-05-21T13:27:34.034Z,74.47
2019-05-21T13:30:37.961Z,75.98
2019-05-21T13:33:41.812Z,77.04
2019-05-21T13:36:45.717Z,75.81
2019-05-21T13:39:50.702Z,75.95
2019-05-21T13:42:54.812Z,76.76
2019-05-21T13:45:58.822Z,76.61
2019-05-21T13:49:02.803Z,76.71
2019-05-21T13:52:06.853Z,77.55
2019-05-21T13:55:10.871Z,77.11
2019-05-21T13:58:14.792Z,77.59
2019-05-21T14:01:19.059Z,77.03
2019-05-21T14:04:22.992Z,77.73
2019-05-21T14:07:27.008Z,78.52
2019-05-21T14:10:30.833Z,78.10
2019-05-21T14:13:34.785Z,78.55
2019-05-21T14:16:38.717Z,78.46
2019-05-21T14:19:42.568Z,79.44
2019-05-21T14:22:46.381Z,80.01
2019-05-21T14:25:50.330Z,79.42
2019-05-21T14:28:54.161Z,79.78
2019-05-21T14:31:58.082Z,80.87
2019-05-21T14:35:02.512Z,80.88
2019-05-21T14:38:06.632Z,81.45
2019-05-21T14:41:10.624Z,82.05
2019-05-21T14:44:14.559Z,82.57
2019-05-21T14:47:18.638Z,82.20
2019-05-21T14:50:22.657Z,82.69
2019-05-21T14:53:26.515Z,82.76
2019-05-21T14:56:30.454Z,82.96
2019-05-21T14:59:34.387Z,82.15
2019-05-21T15:02:38.511Z,82.72
2019-05-21T15:05:42.770Z,83.00
2019-05-21T15:08:46.595Z,83.77
2019-05-21T15:11:50.461Z,84.19
2019-05-21T15:14:54.391Z,84.28
2019-05-21T15:17:58.390Z,83.63
2019-05-21T15:21:07.224Z,83.96
2019-05-21T15:24:11.320Z,84.54
2019-05-21T15:27:15.279Z,84.63
2019-05-21T15:30:19.440Z,83.91
2019-05-21T15:33:23.279Z,84.48
2019-05-21T15:36:27.826Z,84.42
2019-05-21T15:39:31.729Z,84.78
2019-05-21T15:42:35.566Z,84.18
2019-05-21T15:45:39.448Z,84.24
2019-05-21T15:48:43.371Z,84.85
2019-05-21T15:51:47.254Z,84.38
2019-05-21T15:54:51.174Z,82.65
2019-05-21T15:57:55.037Z,83.04
2019-05-21T16:00:59.007Z,83.66
2019-05-21T16:04:02.831Z,84.82
2019-05-21T16:07:06.836Z,85.69
2019-05-21T16:10:11.003Z,85.29
2019-05-21T16:13:14.926Z,85.22
2019-05-21T16:16:18.788Z,86.37
2019-05-21T16:19:22.690Z,86.45
2019-05-21T16:22:26.655Z,85.97
2019-05-21T16:25:30.556Z,85.72
2019-05-21T16:28:34.457Z,86.24
2019-05-21T16:31:38.441Z,85.81
2019-05-21T16:34:42.355Z,85.71
2019-05-21T16:37:46.174Z,85.93
2019-05-21T16:40:50.175Z,86.21
2019-05-21T16:43:54.104Z,86.46
2019-05-21T16:46:57.944Z,86.27
2019-05-21T16:50:01.741Z,87.31
2019-05-21T16:53:05.703Z,87.51
2019-05-21T16:56:09.612Z,87.97
2019-05-21T16:59:13.519Z,88.75
2019-05-21T17:02:17.331Z,88.98
2019-05-21T17:05:21.250Z,88.90
2019-05-21T17:08:25.303Z,88.65
2019-05-21T17:11:29.113Z,89.12
2019-05-21T17:14:33.057Z,89.16
2019-05-21T17:17:37.035Z,89.78
2019-05-21T17:20:40.881Z,89.64
2019-05-21T17:23:44.680Z,89.68
2019-05-21T17:26:48.798Z,89.13
2019-05-21T17:29:52.743Z,89.37
2019-05-21T17:32:56.669Z,89.22
2019-05-21T17:36:00.476Z,90.16
2019-05-21T17:39:06.032Z,90.14
2019-05-21T17:42:15.586Z,90.98
2019-05-21T17:45:15.941Z,90.33
2019-05-21T17:48:19.902Z,90.94
2019-05-21T17:51:23.723Z,90.44
2019-05-21T17:54:27.616Z,91.70
2019-05-21T17:57:32.027Z,91.33
2019-05-21T18:00:47.931Z,91.72
2019-05-21T18:03:52.670Z,91.44
2019-05-21T18:06:56.670Z,91.62
2019-05-21T18:10:00.730Z,91.50
2019-05-21T18:13:04.646Z,90.97
2019-05-21T18:16:08.817Z,91.70
2019-05-21T18:19:13.100Z,91.73
2019-05-21T18:22:18.557Z,91.77
2019-05-21T18:25:23.611Z,92.58
2019-05-21T18:28:27.590Z,92.25
2019-05-21T18:31:31.917Z,92.16
2019-05-21T18:34:35.913Z,93.16
2019-05-21T18:37:39.934Z,94.13
2019-05-21T18:40:43.969Z,94.33
2019-05-21T18:43:50.066Z,94.04
2019-05-21T18:46:53.488Z,94.51
2019-05-21T18:49:57.391Z,94.80
2019-05-21T18:53:01.300Z,94.44
2019-05-21T18:56:05.267Z,94.08
2019-05-21T18:59:09.553Z,94.19
2019-05-21T19:02:13.796Z,94.77
2019-05-21T19:05:17.851Z,95.34
2019-05-21T19:08:21.607Z,95.04
2019-05-21T19:11:25.590Z,94.24
2019-05-21T19:14:29.992Z,94.50
2019-05-21T19:17:35.859Z,94.57
2019-05-21T19:20:39.631Z,93.91
2019-05-21T19:23:43.827Z,94.55
2019-05-21T19:26:47.665Z,94.62
2019-05-21T19:29:51.542Z,94.96
2019-05-21T19:32:55.513Z,95.62
2019-05-21T19:35:59.343Z,95.93
2019-05-21T19:39:03.659Z,95.89
2019-05-21T19:42:07.570Z,95.68
2019-05-21T19:45:12.153Z,95.82
2019-05-21T19:48:16.300Z,96.13
2019-05-21T19:51:20.482Z,95.09
2019-05-21T19:54:24.439Z,95.69
2019-05-21T19:57:30.219Z,96.15
2019-05-21T20:00:36.619Z,96.30
2019-05-21T20:03:40.757Z,97.33
2019-05-21T20:06:44.829Z,96.96
2019-05-21T20:09:50.930Z,96.25
2019-05-21T20:12:55.047Z,97.09
2019-05-21T20:16:01.356Z,97.80
2019-05-21T20:19:06.302Z,97.88
2019-05-21T20:22:11.442Z,97.59
2019-05-21T20:25:16.931Z,98.39
2019-05-21T20:28:21.971Z,99.06
2019-05-21T20:31:26.323Z,98.03
2019-05-21T20:34:30.494Z,98.39
2019-05-21T20:37:36.736Z,99.27
2019-05-21T20:40:42.087Z,98.67
2019-05-21T20:43:58.690Z,99.01
2019-05-21T20:46:55.002Z,99.05
2019-05-21T20:49:59.989Z,98.87
2019-05-21T20:53:05.617Z,99.06
2019-05-21T20:56:10.282Z,98.77
2019-05-21T20:59:14.851Z,98.94
2019-05-21T21:02:19.250Z,99.05
2019-05-21T21:05:23.770Z,99.50
2019-05-21T21:08:28.738Z,98.76
2019-05-21T21:11:33.466Z,99.69
2019-05-21T21:14:41.615Z,99.61
2019-05-21T21:17:45.904Z,99.62
2019-05-21T21:20:50.471Z,99.26
2019-05-21T21:23:56.479Z,100.00
2019-05-21T21:27:00.704Z,99.31
2019-05-21T21:30:05.797Z,99.59
2019-05-21T21:33:10.788Z,99.20
2019-05-21T21:36:15.091Z,99.65
2019-05-21T21:39:19.471Z,99.80
2019-05-21T21:42:23.429Z,98.87
2019-05-21T21:45:27.502Z,99.59
2019-05-21T21:48:32.198Z,99.07
2019-05-21T21:51:36.385Z,99.35
2019-05-21T21:54:40.272Z,99.22
2019-05-21T21:57:44.091Z,99.28
2019-05-21T22:01:44.377Z,98.54
2019-05-21T22:04:49.363Z,99.02
2019-05-21T22:07:54.127Z,98.93
2019-05-21T22:10:58.430Z,99.23
2019-05-21T22:14:03.357Z,98.95
2019-05-21T22:17:09.474Z,99.38
2019-05-21T22:20:14.226Z,99.97
2019-05-21T22:23:18.280Z,100.00
2019-05-21T22:26:22.237Z,100.00
2019-05-21T22:29:26.701Z,100.00
2019-05-21T22:32:30.526Z,100.00
2019-05-21T22:35:34.429Z,100.00
2019-05-21T22:38:38.341Z,100.00
2019-05-21T22:41:42.210Z,100.00
2019-05-21T22:44:46.986Z,100.00
2019-05-21T22:47:50.874Z,100.00
2019-05-21T22:50:54.782Z,100.00
2019-05-21T22:53:58.594Z,100.00
2019-05-21T22:57:03.236Z,100.00
2019-05-21T23:00:08.221Z,100.00
2019-05-21T23:03:12.303Z,100.00
2019-05-21T23:06:16.101Z,100.00
2019-05-21T23:09:20.371Z,100.00
2019-05-21T23:12:24.244Z,100.00
2019-05-21T23:15:28.347Z,100.00
2019-05-21T23:18:33.347Z,100.00
2019-05-21T23:21:37.229Z,100.00
2019-05-21T23:24:41.281Z,100.00
2019-05-21T23:27:45.742Z,100.00
2019-05-21T23:30:49.656Z,100.00
2019-05-21T23:33:56.199Z,100.00
2019-05-21T23:37:00.525Z,100.00
2019-05-21T23:40:06.541Z,100.00
2019-05-21T23:43:11.375Z,100.00
2019-05-21T23:46:15.383Z,100.00
2019-05-21T23:49:19.653Z,100.00
2019-05-21T23:52:24.067Z,100.00
2019-05-21T23:55:28.246Z,100.00
2019-05-21T23:58:32.928Z,100.00
